Time;durP1;ratioP1;P1;durP2;ratioP2;P2;SDS_P1;SDS_P2;PMS_P1;PMS_P2;Temp;Humidity;BMP_temperature;BMP_pressure;BME280_temperature;BME280_humidity;BME280_pressure;Samples;Min_cycle;Max_cycle;Signal;HPM_P1;HPM_P2
2022/03/12 00:02:32;;;;;;;1.77;0.52;;;;;;;;;;4954127;28;20059;-67
2022/03/12 00:05:07;;;;;;;1.13;0.40;;;;;;;;;;4957292;28;20070;-68
2022/03/12 00:07:42;;;;;;;2.50;0.47;;;;;;;;;;4934306;29;20653;-70
2022/03/12 00:10:13;;;;;;;1.42;0.40;;;;;;;;;;4899308;29;20517;-71
2022/03/12 00:12:48;;;;;;;1.00;0.50;;;;;;;;;;4915275;29;20060;-69
2022/03/12 00:15:22;;;;;;;1.00;0.30;;;;;;;;;;4915329;29;20063;-70
2022/03/12 00:17:53;;;;;;;1.05;0.30;;;;;;;;;;4884342;29;20052;-69
2022/03/12 00:20:28;;;;;;;3.00;0.43;;;;;;;;;;4915213;29;20436;-69
2022/03/12 00:23:01;;;;;;;2.47;0.20;;;;;;;;;;4915124;29;20100;-69
2022/03/12 00:25:33;;;;;;;3.03;0.57;;;;;;;;;;4915144;29;20071;-70
2022/03/12 00:28:05;;;;;;;0.95;0.40;;;;;;;;;;4921803;29;20055;-72
2022/03/12 00:30:35;;;;;;;0.82;0.35;;;;;;;;;;4948498;29;20063;-71
2022/03/12 00:33:07;;;;;;;9.82;1.13;;;;;;;;;;4921633;29;20070;-72
2022/03/12 00:35:39;;;;;;;0.68;0.25;;;;;;;;;;4933542;29;20056;-71
2022/03/12 00:38:10;;;;;;;3.90;0.52;;;;;;;;;;4961932;28;20055;-73
2022/03/12 00:40:41;;;;;;;0.73;0.30;;;;;;;;;;4991646;28;20066;-72
2022/03/12 00:43:18;;;;;;;1.63;0.30;;;;;;;;;;4975338;28;20050;-71
2022/03/12 00:45:51;;;;;;;0.52;0.32;;;;;;;;;;4959007;28;20503;-69
2022/03/12 00:48:27;;;;;;;0.47;0.30;;;;;;;;;;4991334;28;20061;-69
2022/03/12 00:51:08;;;;;;;1.42;0.60;;;;;;;;;;4996889;28;20097;-68
2022/03/12 00:53:43;;;;;;;0.95;0.20;;;;;;;;;;5011247;28;20057;-68
2022/03/12 00:56:17;;;;;;;0.40;0.30;;;;;;;;;;5027357;28;20057;-68
2022/03/12 00:58:48;;;;;;;0.88;0.47;;;;;;;;;;5030939;28;20054;-68
2022/03/12 01:01:18;;;;;;;0.70;0.22;;;;;;;;;;5030605;28;20061;-68
2022/03/12 01:03:50;;;;;;;1.77;0.20;;;;;;;;;;4981946;28;20060;-69
2022/03/12 01:06:23;;;;;;;1.63;0.30;;;;;;;;;;4997500;28;20429;-70
2022/03/12 01:08:56;;;;;;;4.47;0.22;;;;;;;;;;5030814;28;20195;-70
2022/03/12 01:11:28;;;;;;;0.93;0.40;;;;;;;;;;4981893;28;20425;-71
2022/03/12 01:13:58;;;;;;;0.60;0.38;;;;;;;;;;5026672;28;20080;-71
2022/03/12 01:16:31;;;;;;;0.95;0.40;;;;;;;;;;5030616;28;20053;-73
2022/03/12 01:19:07;;;;;;;0.35;0.30;;;;;;;;;;5030605;28;20064;-73
2022/03/12 01:21:40;;;;;;;0.50;0.30;;;;;;;;;;5062451;28;20053;-74
2022/03/12 01:24:10;;;;;;;0.95;0.40;;;;;;;;;;5070290;28;20049;-74
2022/03/12 01:26:43;;;;;;;0.70;0.30;;;;;;;;;;5070515;28;20389;-74
2022/03/12 01:29:16;;;;;;;3.13;0.30;;;;;;;;;;5070216;28;20044;-71
2022/03/12 01:31:48;;;;;;;0.40;0.22;;;;;;;;;;5069858;28;20060;-73
2022/03/12 01:34:22;;;;;;;1.40;0.40;;;;;;;;;;5039856;28;20063;-72
2022/03/12 01:36:55;;;;;;;0.65;0.30;;;;;;;;;;5040472;28;20563;-72
2022/03/12 01:39:29;;;;;;;0.52;0.30;;;;;;;;;;5090478;28;20056;-72
2022/03/12 01:42:14;;;;;;;0.63;0.20;;;;;;;;;;5090234;28;20554;-73
2022/03/12 01:44:46;;;;;;;0.73;0.40;;;;;;;;;;5089933;28;20060;-73
2022/03/12 01:47:22;;;;;;;1.52;0.40;;;;;;;;;;5089534;28;20056;-74
2022/03/12 01:49:57;;;;;;;2.28;0.50;;;;;;;;;;5090069;28;20415;-72
2022/03/12 01:52:30;;;;;;;3.78;0.40;;;;;;;;;;5039821;28;20531;-71
2022/03/12 01:55:01;;;;;;;1.08;0.38;;;;;;;;;;5109962;28;20626;-70
2022/03/12 01:57:31;;;;;;;0.85;0.40;;;;;;;;;;5110344;28;20055;-69
2022/03/12 02:00:06;;;;;;;0.93;0.50;;;;;;;;;;5110124;28;20044;-67
2022/03/12 02:02:43;;;;;;;3.17;0.50;;;;;;;;;;5110679;28;20062;-68
2022/03/12 02:05:16;;;;;;;1.33;0.40;;;;;;;;;;5110106;28;20059;-68
2022/03/12 02:07:48;;;;;;;1.20;0.52;;;;;;;;;;5110115;28;20044;-67
2022/03/12 02:10:20;;;;;;;4.03;0.60;;;;;;;;;;5109959;28;20504;-67
2022/03/12 02:12:52;;;;;;;1.80;0.40;;;;;;;;;;5093273;28;20052;-66
2022/03/12 02:15:28;;;;;;;2.55;0.43;;;;;;;;;;5069083;28;20052;-67
2022/03/12 02:18:03;;;;;;;3.25;0.50;;;;;;;;;;5069096;28;20513;-66
2022/03/12 02:20:34;;;;;;;1.25;0.60;;;;;;;;;;5069126;28;20052;-66
2022/03/12 02:23:08;;;;;;;1.48;0.40;;;;;;;;;;5069307;28;20064;-66
2022/03/12 02:25:40;;;;;;;1.40;0.43;;;;;;;;;;5032846;28;20064;-65
2022/03/12 02:28:19;;;;;;;;;;;;;;;;;;5049449;28;20190;-65
2022/03/12 02:30:55;;;;;;;2.92;0.40;;;;;;;;;;5015546;28;19928;-65
2022/03/12 02:33:29;;;;;;;0.52;0.40;;;;;;;;;;5068981;28;20048;-65
2022/03/12 02:36:06;;;;;;;3.10;0.43;;;;;;;;;;5029076;28;20186;-65
2022/03/12 02:38:41;;;;;;;0.65;0.40;;;;;;;;;;5029002;28;20065;-65
2022/03/12 02:41:13;;;;;;;0.60;0.60;;;;;;;;;;4909969;28;20510;-66
2022/03/12 02:43:45;;;;;;;;;;;;;;;;;;4989938;28;20641;-65
2022/03/12 02:46:17;;;;;;;1.20;0.63;;;;;;;;;;4989628;28;19925;-65
2022/03/12 02:48:52;;;;;;;1.98;0.50;;;;;;;;;;5005624;28;20058;-66
2022/03/12 02:51:23;;;;;;;1.73;0.40;;;;;;;;;;4989663;28;20054;-65
2022/03/12 02:53:56;;;;;;;5.63;0.70;;;;;;;;;;4985663;28;20050;-65
2022/03/12 02:56:30;;;;;;;0.63;0.30;;;;;;;;;;4969333;28;20055;-65
2022/03/12 02:59:13;;;;;;;1.02;0.30;;;;;;;;;;4950179;29;20051;-65
2022/03/12 03:01:44;;;;;;;2.50;0.30;;;;;;;;;;4892796;29;20049;-65
2022/03/12 03:04:22;;;;;;;0.50;0.30;;;;;;;;;;4860041;29;20061;-65
2022/03/12 03:06:52;;;;;;;1.73;0.60;;;;;;;;;;4893044;29;20098;-65
2022/03/12 03:09:24;;;;;;;1.73;0.50;;;;;;;;;;4893719;29;20057;-64
2022/03/12 03:11:54;;;;;;;1.95;0.50;;;;;;;;;;4911713;29;20060;-64
2022/03/12 03:14:27;;;;;;;1.30;0.38;;;;;;;;;;4912350;29;20055;-64
2022/03/12 03:17:00;;;;;;;;;;;;;;;;;;4912285;29;20055;-64
2022/03/12 03:19:31;;;;;;;0.95;0.30;;;;;;;;;;4883334;29;19924;-64
2022/03/12 03:22:01;;;;;;;1.17;0.47;;;;;;;;;;4893197;29;20056;-64
2022/03/12 03:24:33;;;;;;;2.28;0.40;;;;;;;;;;4893531;29;20130;-64
2022/03/12 03:27:08;;;;;;;0.80;0.30;;;;;;;;;;4876167;29;20098;-64
2022/03/12 03:29:40;;;;;;;1.98;0.40;;;;;;;;;;4907969;29;20056;-67
2022/03/12 03:32:10;;;;;;;2.13;0.35;;;;;;;;;;4878543;29;20068;-66
2022/03/12 03:34:46;;;;;;;0.60;0.20;;;;;;;;;;4907283;29;20055;-66
2022/03/12 03:37:17;;;;;;;2.03;0.35;;;;;;;;;;4901457;29;20048;-65
2022/03/12 03:39:49;;;;;;;0.50;0.30;;;;;;;;;;4924835;29;20114;-65
2022/03/12 03:42:21;;;;;;;0.55;0.40;;;;;;;;;;4939681;28;20428;-65
2022/03/12 03:45:02;;;;;;;0.63;0.40;;;;;;;;;;4943660;29;20051;-64
2022/03/12 03:47:33;;;;;;;1.15;0.55;;;;;;;;;;4950261;29;20555;-64
2022/03/12 03:50:08;;;;;;;2.90;0.35;;;;;;;;;;4978014;28;20197;-65
2022/03/12 03:52:39;;;;;;;4.10;0.30;;;;;;;;;;4988490;28;20062;-65
2022/03/12 03:55:10;;;;;;;1.92;0.40;;;;;;;;;;4902271;29;20062;-64
2022/03/12 03:57:40;;;;;;;4.75;0.50;;;;;;;;;;4949736;29;20051;-64
2022/03/12 04:00:13;;;;;;;3.35;0.50;;;;;;;;;;4916430;29;20051;-65
2022/03/12 04:02:43;;;;;;;1.13;0.38;;;;;;;;;;4931381;29;20069;-64
2022/03/12 04:05:16;;;;;;;2.20;0.50;;;;;;;;;;4911681;29;20052;-64
2022/03/12 04:07:48;;;;;;;1.25;0.43;;;;;;;;;;4899121;29;20064;-64
2022/03/12 04:10:20;;;;;;;1.13;0.30;;;;;;;;;;4941648;29;20535;-64
2022/03/12 04:12:50;;;;;;;2.15;0.30;;;;;;;;;;4953354;29;20055;-64
2022/03/12 04:15:21;;;;;;;2.63;0.40;;;;;;;;;;4934302;28;20581;-64
2022/03/12 04:17:54;;;;;;;1.20;0.50;;;;;;;;;;4974169;28;20054;-64
2022/03/12 04:20:28;;;;;;;0.50;0.30;;;;;;;;;;4992231;28;20070;-64
2022/03/12 04:22:58;;;;;;;0.80;0.40;;;;;;;;;;5011548;28;20058;-64
2022/03/12 04:25:31;;;;;;;1.02;0.40;;;;;;;;;;5011684;28;20057;-64
2022/03/12 04:28:02;;;;;;;1.17;0.40;;;;;;;;;;5011590;28;20061;-64
2022/03/12 04:30:33;;;;;;;0.85;0.40;;;;;;;;;;4995770;28;20062;-64
2022/03/12 04:33:07;;;;;;;2.17;0.60;;;;;;;;;;4963141;28;20057;-64
2022/03/12 04:35:42;;;;;;;0.90;0.35;;;;;;;;;;4999090;28;20069;-64
2022/03/12 04:38:16;;;;;;;2.03;0.25;;;;;;;;;;4991768;28;20066;-64
2022/03/12 04:40:47;;;;;;;3.60;0.50;;;;;;;;;;4972283;28;20058;-64
2022/03/12 04:43:20;;;;;;;1.00;0.40;;;;;;;;;;4972252;28;20062;-64
2022/03/12 04:45:52;;;;;;;0.60;0.30;;;;;;;;;;4972178;28;20542;-64
2022/03/12 04:48:24;;;;;;;1.20;0.40;;;;;;;;;;4933659;29;20055;-64
2022/03/12 04:51:00;;;;;;;0.55;0.30;;;;;;;;;;4887813;29;20058;-64
2022/03/12 04:53:30;;;;;;;0.60;0.30;;;;;;;;;;4933561;29;20095;-64
2022/03/12 04:56:01;;;;;;;2.30;0.45;;;;;;;;;;4933187;29;20050;-64
2022/03/12 04:58:33;;;;;;;1.30;0.52;;;;;;;;;;4933561;29;20074;-64
2022/03/12 05:01:03;;;;;;;;;;;;;;;;;;4934150;29;20058;-64
2022/03/12 05:03:33;;;;;;;1.27;0.40;;;;;;;;;;4933381;29;19930;-64
2022/03/12 05:06:03;;;;;;;2.60;0.50;;;;;;;;;;4933589;29;20063;-64
2022/03/12 05:08:36;;;;;;;2.95;0.40;;;;;;;;;;4933377;29;20054;-64
2022/03/12 05:11:08;;;;;;;4.82;0.65;;;;;;;;;;4936152;28;20058;-64
2022/03/12 05:13:40;;;;;;;0.80;0.35;;;;;;;;;;4975515;28;20427;-64
2022/03/12 05:16:11;;;;;;;6.72;0.63;;;;;;;;;;4991274;28;20058;-64
2022/03/12 05:18:44;;;;;;;1.50;0.40;;;;;;;;;;4982037;28;20072;-64
2022/03/12 05:21:15;;;;;;;2.92;0.60;;;;;;;;;;4989992;28;20050;-64
2022/03/12 05:23:45;;;;;;;4.20;0.40;;;;;;;;;;4971222;28;20066;-64
2022/03/12 05:26:15;;;;;;;2.92;1.08;;;;;;;;;;4971632;28;20054;-64
2022/03/12 05:28:45;;;;;;;0.57;0.38;;;;;;;;;;4971740;28;20107;-64
2022/03/12 05:31:17;;;;;;;2.78;0.40;;;;;;;;;;4971678;28;20054;-64
2022/03/12 05:33:50;;;;;;;2.42;0.50;;;;;;;;;;5004260;28;20053;-64
2022/03/12 05:36:21;;;;;;;0.50;0.28;;;;;;;;;;5014406;28;20088;-64
2022/03/12 05:38:52;;;;;;;2.92;0.40;;;;;;;;;;5030176;28;20054;-64
2022/03/12 05:41:23;;;;;;;2.45;0.28;;;;;;;;;;5014216;28;20072;-64
2022/03/12 05:43:54;;;;;;;2.53;0.30;;;;;;;;;;5010129;28;20399;-64
2022/03/12 05:46:30;;;;;;;2.13;0.40;;;;;;;;;;4993664;28;20046;-64
2022/03/12 05:49:01;;;;;;;0.40;0.20;;;;;;;;;;5008962;28;20186;-64
2022/03/12 05:51:34;;;;;;;3.22;1.30;;;;;;;;;;5049668;28;20064;-64
2022/03/12 05:54:06;;;;;;;1.52;0.30;;;;;;;;;;5049628;28;20099;-64
2022/03/12 05:56:39;;;;;;;;;;;;;;;;;;5001910;28;20409;-64
2022/03/12 05:59:10;;;;;;;3.85;0.38;;;;;;;;;;5049657;28;19920;-64
2022/03/12 06:01:44;;;;;;;3.55;0.38;;;;;;;;;;5041773;28;20052;-64
2022/03/12 06:04:25;;;;;;;6.07;0.45;;;;;;;;;;4993033;28;20050;-64
2022/03/12 06:06:58;;;;;;;3.58;0.40;;;;;;;;;;4962290;28;20384;-64
2022/03/12 06:09:28;;;;;;;3.42;0.43;;;;;;;;;;4993766;28;20445;-63
2022/03/12 06:11:59;;;;;;;0.70;0.30;;;;;;;;;;5010123;28;20046;-64
2022/03/12 06:14:38;;;;;;;4.53;0.40;;;;;;;;;;5009846;28;20057;-64
2022/03/12 06:17:12;;;;;;;0.45;0.30;;;;;;;;;;4961337;28;20629;-63
2022/03/12 06:19:42;;;;;;;0.60;0.30;;;;;;;;;;4993882;28;20053;-63
2022/03/12 06:22:13;;;;;;;0.95;0.20;;;;;;;;;;5024848;28;20061;-64
2022/03/12 06:24:46;;;;;;;0.50;0.30;;;;;;;;;;5013264;28;20057;-63
2022/03/12 06:27:17;;;;;;;0.45;0.20;;;;;;;;;;5029228;28;20064;-64
2022/03/12 06:29:48;;;;;;;4.97;0.55;;;;;;;;;;5009382;28;20057;-64
2022/03/12 06:32:20;;;;;;;1.05;0.30;;;;;;;;;;5009315;28;20065;-64
2022/03/12 06:34:52;;;;;;;1.80;0.52;;;;;;;;;;4989788;28;20054;-64
2022/03/12 06:37:22;;;;;;;2.45;0.32;;;;;;;;;;4989796;28;20054;-64
2022/03/12 06:39:55;;;;;;;3.88;0.32;;;;;;;;;;4966259;28;20094;-64
2022/03/12 06:42:33;;;;;;;0.77;0.40;;;;;;;;;;4993632;28;20391;-64
2022/03/12 06:45:08;;;;;;;5.43;0.63;;;;;;;;;;4989452;28;20050;-64
2022/03/12 06:47:43;;;;;;;1.05;0.30;;;;;;;;;;4946915;29;20044;-64
2022/03/12 06:50:19;;;;;;;2.10;0.30;;;;;;;;;;4912484;29;20056;-64
2022/03/12 06:52:51;;;;;;;1.67;0.40;;;;;;;;;;4881203;29;20063;-64
2022/03/12 06:55:28;;;;;;;2.30;0.38;;;;;;;;;;4912432;29;20527;-64
2022/03/12 06:57:58;;;;;;;0.63;0.35;;;;;;;;;;4924135;29;20056;-64
2022/03/12 07:00:32;;;;;;;5.57;0.95;;;;;;;;;;4917909;29;20066;-64
2022/03/12 07:03:06;;;;;;;1.05;0.28;;;;;;;;;;4915990;29;20060;-64
2022/03/12 07:05:37;;;;;;;3.90;0.40;;;;;;;;;;4947068;29;20106;-63
2022/03/12 07:08:08;;;;;;;0.75;0.38;;;;;;;;;;4931151;29;20052;-63
2022/03/12 07:10:38;;;;;;;0.30;0.17;;;;;;;;;;4931101;29;20048;-63
2022/03/12 07:13:13;;;;;;;0.95;0.10;;;;;;;;;;4893709;29;20067;-64
2022/03/12 07:15:45;;;;;;;0.60;0.30;;;;;;;;;;4912204;29;20501;-63
2022/03/12 07:18:19;;;;;;;0.35;0.20;;;;;;;;;;4912406;29;20066;-63
2022/03/12 07:20:50;;;;;;;3.75;0.28;;;;;;;;;;4912478;29;20567;-64
2022/03/12 07:23:23;;;;;;;1.27;0.30;;;;;;;;;;4895194;29;20052;-63
2022/03/12 07:25:56;;;;;;;1.67;0.65;;;;;;;;;;4944956;28;20066;-64
2022/03/12 07:28:31;;;;;;;1.45;0.20;;;;;;;;;;4940209;29;20055;-64
2022/03/12 07:31:03;;;;;;;0.50;0.28;;;;;;;;;;4904295;29;20060;-63
2022/03/12 07:33:37;;;;;;;3.13;0.50;;;;;;;;;;4896221;29;20052;-63
2022/03/12 07:36:10;;;;;;;1.00;0.40;;;;;;;;;;4912069;29;20731;-63
2022/03/12 07:38:42;;;;;;;1.88;0.30;;;;;;;;;;4912405;29;20064;-63
2022/03/12 07:41:13;;;;;;;1.90;0.40;;;;;;;;;;4912237;29;20071;-63
2022/03/12 07:43:44;;;;;;;2.50;0.40;;;;;;;;;;4896969;29;20060;-64
2022/03/12 07:46:15;;;;;;;1.98;0.55;;;;;;;;;;4941680;28;20059;-63
2022/03/12 07:48:49;;;;;;;2.80;0.35;;;;;;;;;;4934193;28;20053;-63
2022/03/12 07:51:19;;;;;;;1.25;0.30;;;;;;;;;;4977154;28;20065;-63
2022/03/12 07:53:54;;;;;;;3.90;0.40;;;;;;;;;;4973271;28;20085;-63
2022/03/12 07:56:28;;;;;;;0.55;0.30;;;;;;;;;;4972944;28;20462;-63
2022/03/12 07:59:02;;;;;;;0.40;0.20;;;;;;;;;;4972959;28;20055;-63
2022/03/12 08:01:33;;;;;;;2.53;0.20;;;;;;;;;;4950044;28;20570;-64
2022/03/12 08:04:06;;;;;;;3.53;0.20;;;;;;;;;;4934546;29;20056;-63
2022/03/12 08:06:38;;;;;;;0.68;0.20;;;;;;;;;;4915760;28;20043;-63
2022/03/12 08:09:09;;;;;;;2.15;0.20;;;;;;;;;;4921783;28;20420;-63
2022/03/12 08:11:39;;;;;;;3.83;0.25;;;;;;;;;;4953825;28;20066;-63
2022/03/12 08:14:12;;;;;;;5.82;0.30;;;;;;;;;;4953520;29;20738;-63
2022/03/12 08:16:48;;;;;;;0.90;0.30;;;;;;;;;;4972412;28;20055;-63
2022/03/12 08:19:44;;;;;;;1.27;0.20;;;;;;;;;;4934080;29;20059;-63
2022/03/12 08:22:17;;;;;;;1.13;0.20;;;;;;;;;;4914474;28;20050;-63
2022/03/12 08:24:47;;;;;;;0.20;0.20;;;;;;;;;;4969854;28;20065;-63
2022/03/12 08:30:20;;;;;;;1.10;0.35;;;;;;;;;;4993200;28;20521;-64
2022/03/12 08:32:52;;;;;;;1.05;0.30;;;;;;;;;;4995289;28;20457;-63
2022/03/12 08:35:22;;;;;;;1.17;0.45;;;;;;;;;;4972083;28;20057;-63
2022/03/12 08:37:55;;;;;;;2.75;0.20;;;;;;;;;;4924518;28;20051;-64
2022/03/12 08:40:28;;;;;;;3.33;0.30;;;;;;;;;;4972178;28;20059;-63
2022/03/12 08:42:59;;;;;;;0.50;0.47;;;;;;;;;;4972340;28;20058;-63
2022/03/12 08:45:29;;;;;;;0.68;0.28;;;;;;;;;;4972287;28;20055;-63
2022/03/12 08:48:04;;;;;;;1.08;0.50;;;;;;;;;;4929974;29;20052;-63
2022/03/12 08:50:37;;;;;;;0.50;0.30;;;;;;;;;;4914608;29;20067;-63
2022/03/12 08:53:10;;;;;;;3.60;0.30;;;;;;;;;;4914698;29;20060;-63
2022/03/12 08:55:41;;;;;;;1.02;0.20;;;;;;;;;;4914096;29;20059;-63
2022/03/12 08:58:17;;;;;;;3.83;0.30;;;;;;;;;;4952769;29;20067;-63
2022/03/12 09:00:52;;;;;;;0.60;0.20;;;;;;;;;;4973327;28;20422;-63
2022/03/12 09:03:25;;;;;;;6.25;0.40;;;;;;;;;;4991613;28;20050;-63
2022/03/12 09:05:55;;;;;;;0.63;0.28;;;;;;;;;;4991245;28;20054;-63
2022/03/12 09:08:26;;;;;;;0.30;0.20;;;;;;;;;;4991466;28;20462;-63
2022/03/12 09:11:00;;;;;;;2.47;0.32;;;;;;;;;;4971885;28;20054;-63
2022/03/12 09:13:30;;;;;;;2.20;0.13;;;;;;;;;;4985296;28;20066;-63
2022/03/12 09:16:01;;;;;;;1.17;0.30;;;;;;;;;;4991113;28;20070;-63
2022/03/12 09:18:35;;;;;;;0.65;0.20;;;;;;;;;;4952326;29;20047;-63
2022/03/12 09:21:06;;;;;;;0.55;0.40;;;;;;;;;;4952366;29;20055;-63
2022/03/12 09:23:36;;;;;;;0.93;0.20;;;;;;;;;;4952570;29;20067;-63
2022/03/12 09:26:06;;;;;;;0.70;0.20;;;;;;;;;;4965240;28;20062;-63
2022/03/12 09:28:38;;;;;;;3.60;0.40;;;;;;;;;;4971547;28;20165;-63
2022/03/12 09:31:10;;;;;;;0.85;0.20;;;;;;;;;;4971433;28;20054;-63
2022/03/12 09:33:44;;;;;;;0.57;0.20;;;;;;;;;;5012475;28;20541;-63
2022/03/12 09:36:16;;;;;;;0.73;0.32;;;;;;;;;;4997196;28;20493;-63
2022/03/12 09:38:47;;;;;;;2.00;0.40;;;;;;;;;;5030187;28;20513;-63
2022/03/12 09:41:22;;;;;;;3.08;0.55;;;;;;;;;;4959367;28;20046;-64
2022/03/12 09:43:54;;;;;;;6.80;0.30;;;;;;;;;;4990791;28;20074;-64
2022/03/12 09:46:25;;;;;;;0.60;0.40;;;;;;;;;;4951358;29;20393;-63
2022/03/12 09:48:59;;;;;;;2.17;0.32;;;;;;;;;;4977913;28;20063;-63
2022/03/12 09:51:31;;;;;;;6.43;0.30;;;;;;;;;;4990560;28;20193;-63
2022/03/12 09:54:12;;;;;;;2.92;0.25;;;;;;;;;;5004916;28;20054;-62
2022/03/12 09:56:42;;;;;;;6.95;0.47;;;;;;;;;;5047912;28;20049;-62
2022/03/12 09:59:13;;;;;;;2.53;0.80;;;;;;;;;;5033706;28;20064;-62
2022/03/12 10:01:45;;;;;;;4.10;0.30;;;;;;;;;;5049984;28;20045;-62
2022/03/12 10:04:20;;;;;;;4.13;0.50;;;;;;;;;;4984250;28;20052;-63
2022/03/12 10:06:50;;;;;;;1.52;0.50;;;;;;;;;;5049253;28;20092;-63
2022/03/12 10:09:23;;;;;;;2.05;0.47;;;;;;;;;;5033578;28;20516;-63
2022/03/12 10:12:00;;;;;;;0.95;0.40;;;;;;;;;;5049061;28;20056;-63
2022/03/12 10:14:31;;;;;;;0.93;0.40;;;;;;;;;;5032892;28;20053;-63
2022/03/12 10:17:03;;;;;;;2.83;0.30;;;;;;;;;;5049450;28;20064;-62
2022/03/12 10:19:38;;;;;;;2.17;0.50;;;;;;;;;;5031999;28;20052;-62
2022/03/12 10:22:10;;;;;;;2.22;0.40;;;;;;;;;;5029387;28;20421;-63
2022/03/12 10:24:41;;;;;;;0.82;0.40;;;;;;;;;;5059595;28;20063;-62
2022/03/12 10:27:11;;;;;;;2.45;0.30;;;;;;;;;;5035848;28;20063;-62
2022/03/12 10:29:44;;;;;;;1.55;0.40;;;;;;;;;;5069157;28;20060;-62
2022/03/12 10:32:29;;;;;;;2.60;0.40;;;;;;;;;;5053213;28;20063;-62
2022/03/12 10:35:02;;;;;;;2.88;0.40;;;;;;;;;;5068997;28;20075;-62
2022/03/12 10:37:34;;;;;;;1.73;0.47;;;;;;;;;;5036253;28;20048;-62
2022/03/12 10:40:14;;;;;;;4.05;0.50;;;;;;;;;;5019213;28;20392;-63
2022/03/12 10:42:53;;;;;;;1.30;0.47;;;;;;;;;;5035578;28;20055;-62
2022/03/12 10:45:31;;;;;;;2.17;0.60;;;;;;;;;;5069045;28;20515;-62
2022/03/12 10:48:04;;;;;;;0.85;0.32;;;;;;;;;;5068987;28;20056;-62
2022/03/12 10:50:47;;;;;;;0.98;0.45;;;;;;;;;;5048141;28;20056;-63
2022/03/12 10:53:22;;;;;;;2.90;0.70;;;;;;;;;;5048664;28;20064;-62
2022/03/12 10:55:53;;;;;;;3.47;1.13;;;;;;;;;;5024611;28;20406;-62
2022/03/12 10:58:26;;;;;;;5.47;1.02;;;;;;;;;;4992344;28;20069;-62
2022/03/12 11:01:01;;;;;;;9.07;1.50;;;;;;;;;;5028886;28;20058;-62
2022/03/12 11:03:37;;;;;;;1.35;0.75;;;;;;;;;;5028667;28;20049;-62
2022/03/12 11:06:10;;;;;;;1.70;0.95;;;;;;;;;;5013036;28;20057;-62
2022/03/12 11:08:41;;;;;;;5.10;0.70;;;;;;;;;;5024740;28;20497;-62
2022/03/12 11:11:16;;;;;;;1.10;0.50;;;;;;;;;;5009005;28;20069;-62
2022/03/12 11:13:50;;;;;;;4.80;0.52;;;;;;;;;;4960410;28;20058;-62
2022/03/12 11:16:24;;;;;;;1.73;0.60;;;;;;;;;;5008556;28;20528;-62
2022/03/12 11:18:56;;;;;;;1.50;0.30;;;;;;;;;;5007834;28;20061;-63
2022/03/12 11:21:39;;;;;;;3.00;0.57;;;;;;;;;;4976189;28;20069;-63
2022/03/12 11:24:26;;;;;;;3.22;0.70;;;;;;;;;;4976388;28;20627;-63
2022/03/12 11:26:59;;;;;;;1.60;0.80;;;;;;;;;;4961966;28;20068;-62
2022/03/12 11:29:30;;;;;;;2.78;0.40;;;;;;;;;;5028584;28;20064;-62
2022/03/12 11:32:05;;;;;;;1.83;0.40;;;;;;;;;;5028222;28;20060;-62
2022/03/12 11:34:40;;;;;;;2.33;0.50;;;;;;;;;;5013882;28;20056;-62
2022/03/12 11:37:16;;;;;;;4.07;0.85;;;;;;;;;;5048054;28;20049;-62
2022/03/12 11:39:51;;;;;;;2.95;0.80;;;;;;;;;;5058037;28;20394;-62
2022/03/12 11:42:26;;;;;;;1.27;0.47;;;;;;;;;;5068306;28;20055;-62
2022/03/12 11:45:00;;;;;;;2.58;0.38;;;;;;;;;;5052100;28;20547;-62
2022/03/12 11:47:34;;;;;;;3.08;0.60;;;;;;;;;;5036143;28;20052;-62
2022/03/12 11:50:09;;;;;;;1.67;0.40;;;;;;;;;;5008282;28;20537;-62
2022/03/12 11:52:48;;;;;;;1.85;0.43;;;;;;;;;;4972996;28;20050;-62
2022/03/12 11:55:22;;;;;;;2.28;0.50;;;;;;;;;;5047895;28;20049;-62
2022/03/12 11:57:58;;;;;;;5.20;0.65;;;;;;;;;;5048145;28;20053;-62
2022/03/12 12:00:30;;;;;;;1.15;0.30;;;;;;;;;;4981799;28;20406;-63
2022/03/12 12:03:07;;;;;;;2.70;0.63;;;;;;;;;;4988194;28;20415;-62
2022/03/12 12:05:43;;;;;;;2.67;0.60;;;;;;;;;;4949895;28;20519;-62
2022/03/12 12:08:19;;;;;;;2.17;0.60;;;;;;;;;;4950140;28;20066;-62
2022/03/12 12:10:51;;;;;;;1.73;0.70;;;;;;;;;;4950058;28;20067;-62
2022/03/12 12:13:24;;;;;;;2.08;0.60;;;;;;;;;;4950379;28;20070;-61
2022/03/12 12:15:58;;;;;;;9.23;2.17;;;;;;;;;;4949941;28;20059;-62
2022/03/12 12:18:29;;;;;;;11.43;5.70;;;;;;;;;;4919210;28;20063;-62
2022/03/12 12:21:01;;;;;;;4.13;0.80;;;;;;;;;;4950053;28;20055;-62
2022/03/12 12:23:32;;;;;;;1.33;0.60;;;;;;;;;;4956754;28;20070;-63
2022/03/12 12:26:08;;;;;;;2.13;1.23;;;;;;;;;;4969081;28;20058;-62
2022/03/12 12:28:52;;;;;;;2.50;1.00;;;;;;;;;;5022158;28;20057;-62
2022/03/12 12:31:26;;;;;;;4.00;1.10;;;;;;;;;;4958893;28;20073;-62
2022/03/12 12:34:00;;;;;;;3.30;1.00;;;;;;;;;;5002751;28;20060;-62
2022/03/12 12:36:35;;;;;;;2.53;0.60;;;;;;;;;;5031650;28;20057;-62
2022/03/12 12:39:12;;;;;;;2.45;0.60;;;;;;;;;;4972612;28;20135;-63
2022/03/12 12:41:54;;;;;;;1.85;0.82;;;;;;;;;;4972341;28;20135;-62
2022/03/12 12:44:41;;;;;;;1.20;0.40;;;;;;;;;;5010157;28;20054;-62
2022/03/12 12:47:22;;;;;;;3.22;0.35;;;;;;;;;;4972411;28;20069;-62
2022/03/12 12:49:55;;;;;;;2.35;0.80;;;;;;;;;;4952900;29;20058;-62
2022/03/12 12:52:35;;;;;;;2.30;0.50;;;;;;;;;;4952991;29;20067;-62
2022/03/12 12:55:08;;;;;;;2.50;0.93;;;;;;;;;;4914362;29;20067;-62
2022/03/12 12:57:43;;;;;;;6.00;2.60;;;;;;;;;;4882937;29;20505;-62
2022/03/12 13:00:37;;;;;;;3.72;0.90;;;;;;;;;;4915051;29;20524;-62
2022/03/12 13:03:18;;;;;;;12.00;5.30;;;;;;;;;;4882869;29;20059;-62
2022/03/12 13:05:59;;;;;;;54.15;25.15;;;;;;;;;;4914798;29;20064;-62
2022/03/12 13:08:45;;;;;;;11.65;4.78;;;;;;;;;;4909865;28;20063;-62
2022/03/12 13:11:29;;;;;;;3.67;1.10;;;;;;;;;;4952577;28;20078;-62
2022/03/12 13:14:01;;;;;;;;;;;;;;;;;;4921184;28;20051;-62
2022/03/12 13:16:51;;;;;;;6.07;1.30;;;;;;;;;;4974774;28;19921;-61
2022/03/12 13:19:33;;;;;;;18.63;10.20;;;;;;;;;;4991441;28;20062;-62
2022/03/12 13:22:06;;;;;;;5.18;0.95;;;;;;;;;;4933306;29;20064;-62
2022/03/12 13:24:54;;;;;;;2.50;0.70;;;;;;;;;;4921834;29;20044;-61
2022/03/12 13:27:36;;;;;;;2.40;0.80;;;;;;;;;;4954421;28;20065;-62
2022/03/12 13:30:18;;;;;;;2.20;0.70;;;;;;;;;;4971226;28;20062;-62
2022/03/12 13:32:52;;;;;;;1.58;0.70;;;;;;;;;;4971767;28;20059;-61
2022/03/12 13:35:25;;;;;;;4.65;0.50;;;;;;;;;;4971388;28;20059;-62
2022/03/12 13:38:02;;;;;;;2.40;0.60;;;;;;;;;;4939806;28;20077;-62
2022/03/12 13:40:38;;;;;;;6.47;2.00;;;;;;;;;;4924635;28;20055;-62
2022/03/12 13:43:10;;;;;;;2.03;0.82;;;;;;;;;;4939007;28;20198;-63
2022/03/12 13:45:40;;;;;;;8.98;5.18;;;;;;;;;;4951819;28;20456;-62
2022/03/12 13:48:13;;;;;;;5.03;0.85;;;;;;;;;;4936578;28;20533;-62
2022/03/12 13:50:44;;;;;;;5.60;0.80;;;;;;;;;;4952183;28;20051;-61
2022/03/12 13:53:19;;;;;;;3.45;1.00;;;;;;;;;;4913234;29;20203;-62
2022/03/12 13:55:49;;;;;;;4.13;0.90;;;;;;;;;;4912133;29;20430;-62
2022/03/12 13:58:21;;;;;;;1.98;1.10;;;;;;;;;;4894527;29;20429;-62
2022/03/12 14:00:55;;;;;;;5.70;1.08;;;;;;;;;;4931347;29;20056;-62
2022/03/12 14:03:30;;;;;;;1.08;0.63;;;;;;;;;;4939670;28;20411;-62
2022/03/12 14:06:01;;;;;;;4.50;1.20;;;;;;;;;;4971045;28;20058;-62
2022/03/12 14:08:31;;;;;;;5.30;0.70;;;;;;;;;;5002216;28;20062;-62
2022/03/12 14:11:07;;;;;;;1.60;0.80;;;;;;;;;;4994036;28;20065;-61
2022/03/12 14:13:40;;;;;;;4.25;0.88;;;;;;;;;;5009728;28;20050;-61
2022/03/12 14:16:14;;;;;;;2.78;0.50;;;;;;;;;;5009890;28;20058;-62
2022/03/12 14:18:45;;;;;;;2.63;0.63;;;;;;;;;;4970324;28;20054;-62
2022/03/12 14:21:15;;;;;;;2.15;0.90;;;;;;;;;;4970796;28;20400;-61
2022/03/12 14:23:48;;;;;;;5.22;0.90;;;;;;;;;;4997870;28;20065;-62
2022/03/12 14:26:21;;;;;;;1.08;0.63;;;;;;;;;;4993636;28;20049;-61
2022/03/12 14:28:54;;;;;;;3.15;0.95;;;;;;;;;;4993359;28;20050;-62
2022/03/12 14:31:25;;;;;;;3.13;0.70;;;;;;;;;;5017749;28;20056;-62
2022/03/12 14:33:59;;;;;;;4.20;0.98;;;;;;;;;;5069118;28;20432;-61
2022/03/12 14:36:35;;;;;;;2.25;0.80;;;;;;;;;;5048708;28;20052;-62
2022/03/12 14:39:11;;;;;;;2.72;0.98;;;;;;;;;;5049094;28;20520;-61
2022/03/12 14:41:42;;;;;;;2.97;0.70;;;;;;;;;;5032842;28;20060;-61
2022/03/12 14:44:16;;;;;;;2.72;1.10;;;;;;;;;;5049107;28;20072;-62
2022/03/12 14:46:49;;;;;;;2.85;1.10;;;;;;;;;;5049084;28;20189;-61
2022/03/12 14:49:29;;;;;;;2.78;0.90;;;;;;;;;;5008707;28;20050;-62
2022/03/12 14:52:01;;;;;;;2.20;0.70;;;;;;;;;;4976682;28;20050;-62
2022/03/12 14:54:36;;;;;;;3.00;0.60;;;;;;;;;;5008720;28;20066;-61
2022/03/12 14:57:11;;;;;;;3.95;0.80;;;;;;;;;;5028761;28;20536;-62
2022/03/12 14:59:43;;;;;;;5.85;1.25;;;;;;;;;;5048728;28;20045;-61
2022/03/12 15:02:21;;;;;;;2.42;0.90;;;;;;;;;;5032617;28;20056;-61
2022/03/12 15:05:00;;;;;;;2.33;0.60;;;;;;;;;;5048863;28;20041;-61
2022/03/12 15:07:50;;;;;;;2.55;1.00;;;;;;;;;;5048618;28;20059;-61
2022/03/12 15:10:23;;;;;;;3.15;0.95;;;;;;;;;;5048699;28;20049;-62
2022/03/12 15:13:00;;;;;;;1.65;0.70;;;;;;;;;;5015665;28;20053;-61
2022/03/12 15:15:33;;;;;;;4.88;1.00;;;;;;;;;;5048642;28;20045;-61
2022/03/12 15:18:11;;;;;;;3.75;0.82;;;;;;;;;;5048225;28;20041;-63
2022/03/12 15:20:48;;;;;;;2.83;0.70;;;;;;;;;;5048389;28;20417;-61
2022/03/12 15:23:22;;;;;;;1.17;0.77;;;;;;;;;;5048368;28;20045;-61
2022/03/12 15:26:08;;;;;;;4.95;1.10;;;;;;;;;;5018665;28;20072;-61
2022/03/12 15:28:48;;;;;;;3.47;1.38;;;;;;;;;;5111184;28;20035;-61